createdAt,value
2023-03-23T15:58:53.076Z,7.20
2023-03-23T16:01:25.217Z,7.20
2023-03-23T16:03:56.934Z,7.20
2023-03-23T16:06:27.527Z,7.20
2023-03-23T16:08:55.792Z,7.20
2023-03-23T16:11:24.990Z,7.20
2023-03-23T16:13:51.896Z,7.20
2023-03-23T16:16:23.094Z,7.20
2023-03-23T16:18:50.607Z,7.20
2023-03-23T16:21:17.549Z,7.20
2023-03-23T16:23:46.294Z,7.10
2023-03-23T16:26:14.608Z,7.10
2023-03-23T16:28:42.299Z,7.00
2023-03-23T16:31:09.395Z,7.00
2023-03-23T16:33:36.616Z,7.00
2023-03-23T16:36:04.258Z,7.00
2023-03-23T16:38:31.228Z,7.00
2023-03-23T16:40:58.087Z,7.00
2023-03-23T16:43:24.889Z,7.00
2023-03-23T16:45:56.274Z,7.00
2023-03-23T16:48:23.588Z,7.00
2023-03-23T16:50:51.981Z,7.00
2023-03-23T16:53:19.146Z,7.00
2023-03-23T16:55:48.316Z,7.00
2023-03-23T16:58:17.491Z,7.00
2023-03-23T17:00:48.042Z,6.90
2023-03-23T17:03:16.585Z,6.90
2023-03-23T17:05:45.015Z,6.90
2023-03-23T17:08:12.578Z,6.80
2023-03-23T17:10:41.237Z,6.80
2023-03-23T17:13:08.986Z,6.80
2023-03-23T17:15:41.248Z,6.80
2023-03-23T17:18:09.319Z,6.80
2023-03-23T17:20:36.553Z,6.80
2023-03-23T17:23:04.313Z,6.80
2023-03-23T17:25:32.067Z,6.80
2023-03-23T17:28:06.131Z,6.80
2023-03-23T17:30:35.370Z,6.80
2023-03-23T17:33:02.812Z,6.90
2023-03-23T17:35:30.039Z,7.00
2023-03-23T17:37:56.911Z,7.00
2023-03-23T17:40:23.763Z,7.00
2023-03-23T17:42:50.812Z,7.00
2023-03-23T17:45:17.881Z,7.10
2023-03-23T17:47:44.743Z,7.10
2023-03-23T17:50:12.693Z,7.20
2023-03-23T17:52:41.084Z,7.20
2023-03-23T17:55:08.356Z,7.20
2023-03-23T17:57:35.444Z,7.20
2023-03-23T18:00:04.133Z,7.10
2023-03-23T18:02:33.946Z,7.10
2023-03-23T18:05:00.863Z,7.20
2023-03-23T18:07:27.960Z,7.30
2023-03-23T18:10:01.750Z,7.40
2023-03-23T18:12:28.744Z,7.40
2023-03-23T18:14:58.861Z,7.50
2023-03-23T18:17:26.677Z,7.60
2023-03-23T18:19:53.847Z,7.70
2023-03-23T18:22:20.813Z,7.80
2023-03-23T18:24:47.776Z,7.80
2023-03-23T18:27:15.139Z,7.80
2023-03-23T18:29:42.016Z,7.80
2023-03-23T18:32:09.265Z,7.80
2023-03-23T18:34:37.783Z,7.70
2023-03-23T18:37:04.784Z,7.70
2023-03-23T18:39:34.053Z,7.80
2023-03-23T18:42:01.459Z,7.70
2023-03-23T18:44:28.350Z,7.60
2023-03-23T18:46:55.177Z,7.50
2023-03-23T18:49:22.813Z,7.40
2023-03-23T18:51:49.614Z,7.30
2023-03-23T18:54:17.595Z,7.10
2023-03-23T18:56:44.738Z,7.10
2023-03-23T18:59:11.731Z,6.90
2023-03-23T19:01:38.878Z,6.90
2023-03-23T19:04:06.782Z,6.70
2023-03-23T19:06:35.093Z,6.60
2023-03-23T19:09:02.358Z,6.60
2023-03-23T19:11:29.350Z,6.50
2023-03-23T19:14:02.304Z,6.40
2023-03-23T19:16:31.468Z,6.40
2023-03-23T19:18:59.762Z,6.30
2023-03-23T19:21:29.085Z,6.30
2023-03-23T19:23:58.192Z,6.20
2023-03-23T19:26:36.962Z,6.20
2023-03-23T19:29:26.101Z,6.20
2023-03-23T19:31:55.392Z,6.10
2023-03-23T19:34:22.902Z,6.00
2023-03-23T19:36:55.230Z,6.00
2023-03-23T19:39:30.181Z,5.90
2023-03-23T19:41:57.125Z,5.80
2023-03-23T19:44:25.574Z,5.80
2023-03-23T19:46:53.636Z,5.70
2023-03-23T19:49:20.957Z,5.70
2023-03-23T19:51:47.817Z,5.60
2023-03-23T19:54:14.736Z,5.60
2023-03-23T19:56:43.314Z,5.50
2023-03-23T19:59:14.991Z,5.40
2023-03-23T20:01:45.354Z,5.40
2023-03-23T20:04:12.431Z,5.40
2023-03-23T20:06:39.721Z,5.30
2023-03-23T20:09:07.200Z,5.30
2023-03-23T20:11:34.595Z,5.30
2023-03-23T20:14:01.865Z,5.30
2023-03-23T20:16:29.290Z,5.40
2023-03-23T20:19:00.345Z,5.40
2023-03-23T20:21:28.062Z,5.50
2023-03-23T20:23:57.007Z,5.50
2023-03-23T20:26:33.496Z,5.60
2023-03-23T20:29:01.201Z,5.60
2023-03-23T20:31:31.169Z,5.70
2023-03-23T20:34:03.056Z,5.80
2023-03-23T20:36:36.373Z,5.90
2023-03-23T20:39:10.742Z,5.90
2023-03-23T20:41:38.824Z,6.00
2023-03-23T20:44:07.634Z,6.00
2023-03-23T20:46:35.681Z,5.90
2023-03-23T20:49:03.031Z,5.90
2023-03-23T20:51:30.360Z,5.90
2023-03-23T20:53:57.195Z,5.90
2023-03-23T20:56:25.656Z,5.90
2023-03-23T20:58:53.512Z,5.90
2023-03-23T21:01:21.612Z,5.90
2023-03-23T21:03:52.144Z,5.90
2023-03-23T21:06:19.309Z,5.90
2023-03-23T21:08:46.659Z,5.80
2023-03-23T21:11:21.671Z,5.80
2023-03-23T21:13:48.570Z,5.80
2023-03-23T21:16:15.935Z,5.80
2023-03-23T21:18:42.939Z,5.90
2023-03-23T21:21:11.294Z,5.90
2023-03-23T21:23:39.113Z,5.90
2023-03-23T21:26:10.888Z,5.90
2023-03-23T21:28:37.873Z,5.90
2023-03-23T21:31:07.336Z,5.90
2023-03-23T21:33:34.279Z,5.90
2023-03-23T21:36:02.420Z,5.90
2023-03-23T21:38:29.627Z,5.90
2023-03-23T21:40:59.233Z,5.90
2023-03-23T21:43:27.534Z,5.90
2023-03-23T21:46:02.913Z,5.90
2023-03-23T21:48:30.068Z,6.00
2023-03-23T21:50:57.240Z,5.90
2023-03-23T21:53:25.480Z,5.90
2023-03-23T21:55:52.648Z,6.00
2023-03-23T21:58:21.987Z,6.00
2023-03-23T22:00:53.773Z,6.00
2023-03-23T22:03:25.189Z,6.10
2023-03-23T22:05:57.051Z,6.10
2023-03-23T22:08:25.940Z,6.10
2023-03-23T22:11:00.813Z,6.10
2023-03-23T22:13:30.433Z,6.10
2023-03-23T22:15:58.974Z,6.20
2023-03-23T22:18:26.166Z,6.20
2023-03-23T22:20:53.338Z,6.20
2023-03-23T22:23:20.321Z,6.30
2023-03-23T22:25:47.365Z,6.30
2023-03-23T22:28:14.434Z,6.40
2023-03-23T22:30:41.277Z,6.40
2023-03-23T22:33:08.229Z,6.50
2023-03-23T22:35:35.293Z,6.40
2023-03-23T22:38:03.272Z,6.50
2023-03-23T22:40:31.948Z,6.50
2023-03-23T22:42:58.856Z,6.50
2023-03-23T22:45:27.319Z,6.50
2023-03-23T22:47:54.396Z,6.50
2023-03-23T22:50:24.007Z,6.50
2023-03-23T22:52:50.964Z,6.50
2023-03-23T22:55:17.890Z,6.60
2023-03-23T22:57:44.794Z,6.60
2023-03-23T23:00:14.954Z,6.50
2023-03-23T23:02:42.447Z,6.50
2023-03-23T23:05:10.157Z,6.50
2023-03-23T23:07:37.734Z,6.50
2023-03-23T23:10:05.618Z,6.50
2023-03-23T23:12:35.131Z,6.50
2023-03-23T23:15:04.530Z,6.40
2023-03-23T23:17:32.048Z,6.50
2023-03-23T23:20:00.043Z,6.50
2023-03-23T23:22:27.014Z,6.50
2023-03-23T23:24:54.162Z,6.50
2023-03-23T23:27:21.165Z,6.50
2023-03-23T23:29:48.027Z,6.50
2023-03-23T23:32:15.020Z,6.40
2023-03-23T23:34:41.895Z,6.40
2023-03-23T23:37:09.079Z,6.40
2023-03-23T23:39:38.332Z,6.40
2023-03-23T23:42:05.866Z,6.50
2023-03-23T23:44:33.158Z,6.50
2023-03-23T23:47:00.097Z,6.50
2023-03-23T23:49:28.709Z,6.60
2023-03-23T23:51:56.581Z,6.60
2023-03-23T23:54:30.276Z,6.60
2023-03-23T23:57:01.175Z,6.60
2023-03-23T23:59:29.111Z,6.70
